Time;durP1;ratioP1;P1;durP2;ratioP2;P2;SDS_P1;SDS_P2;PMS_P1;PMS_P2;Temp;Humidity;BMP_temperature;BMP_pressure;BME280_temperature;BME280_humidity;BME280_pressure;Samples;Min_cycle;Max_cycle;Signal;HPM_P1;HPM_P2
2023/04/09 00:01:00;;;;;;;;;;;;;;;15.18;100.00;102425.34;5090393;28;19976;-51
2023/04/09 00:03:26;;;;;;;;;;;;;;;15.16;100.00;102421.13;5087351;28;19930;-55
2023/04/09 00:05:53;;;;;;;;;;;;;;;15.17;100.00;102417.41;5095946;28;19927;-56
2023/04/09 00:08:19;;;;;;;;;;;;;;;15.02;100.00;102418.28;5092979;28;19912;-51
2023/04/09 00:10:45;;;;;;;;;;;;;;;14.98;100.00;102425.03;5094262;28;19947;-54
2023/04/09 00:13:10;;;;;;;;;;;;;;;15.12;100.00;102426.09;5095306;28;19916;-53
2023/04/09 00:15:36;;;;;;;;;;;;;;;15.09;100.00;102420.22;5098733;28;19916;-54
2023/04/09 00:18:01;;;;;;;;;;;;;;;15.05;100.00;102423.28;5090938;28;19944;-54
2023/04/09 00:20:27;;;;;;;;;;;;;;;14.95;100.00;102414.66;5094080;28;19931;-49
2023/04/09 00:22:53;;;;;;;;;;;;;;;15.08;100.00;102422.06;5089482;28;19990;-55
2023/04/09 00:25:18;;;;;;;;;;;;;;;15.04;100.00;102412.69;5087225;28;19935;-55
2023/04/09 00:27:44;;;;;;;;;;;;;;;14.87;100.00;102415.56;5091875;28;19987;-50
2023/04/09 00:30:10;;;;;;;;;;;;;;;14.99;100.00;102413.28;5072998;28;19940;-52
2023/04/09 00:32:35;;;;;;;;;;;;;;;15.16;100.00;102418.44;5093967;28;19920;-58
2023/04/09 00:35:01;;;;;;;;;;;;;;;15.17;100.00;102412.03;5076246;28;19920;-54
2023/04/09 00:37:26;;;;;;;;;;;;;;;15.07;100.00;102406.09;5083770;28;19988;-52
2023/04/09 00:39:51;;;;;;;;;;;;;;;15.14;100.00;102404.31;5075461;28;19917;-49
2023/04/09 00:42:17;;;;;;;;;;;;;;;15.18;100.00;102402.91;5075251;28;19932;-51
2023/04/09 00:44:43;;;;;;;;;;;;;;;15.17;100.00;102401.25;5055998;28;19947;-49
2023/04/09 00:47:08;;;;;;;;;;;;;;;15.11;100.00;102396.63;5073288;28;19932;-54
2023/04/09 00:49:34;;;;;;;;;;;;;;;14.95;100.00;102393.09;5073660;28;19917;-53
2023/04/09 00:51:59;;;;;;;;;;;;;;;14.93;100.00;102400.53;5073474;28;19996;-54
2023/04/09 00:54:25;;;;;;;;;;;;;;;14.98;100.00;102389.19;5042789;28;19921;-54
2023/04/09 00:56:51;;;;;;;;;;;;;;;14.97;100.00;102391.03;5071552;28;19924;-52
2023/04/09 00:59:16;;;;;;;;;;;;;;;15.01;100.00;102397.75;5045334;28;19928;-51
2023/04/09 01:01:41;;;;;;;;;;;;;;;15.05;100.00;102392.81;5045681;28;19917;-55
2023/04/09 01:04:07;;;;;;;;;;;;;;;15.04;100.00;102393.84;5053941;28;19924;-52
2023/04/09 01:06:41;;;;;;;;;;;;;;;15.04;100.00;102392.00;5049818;28;19921;-54
2023/04/09 01:09:09;;;;;;;;;;;;;;;14.90;100.00;102388.28;5066922;28;19917;-55
2023/04/09 01:11:45;;;;;;;;;;;;;;;14.89;100.00;102399.22;5053429;28;19952;-53
2023/04/09 01:14:18;;;;;;;;;;;;;;;14.88;100.00;102386.78;5055569;28;19928;-52
2023/04/09 01:16:46;;;;;;;;;;;;;;;14.84;100.00;102385.50;5071798;28;19972;-56
2023/04/09 01:19:23;;;;;;;;;;;;;;;14.41;100.00;102378.00;5056772;28;20012;-54
2023/04/09 01:21:49;;;;;;;;;;;;;;;14.58;100.00;102378.69;5054201;28;19939;-55
2023/04/09 01:24:17;;;;;;;;;;;;;;;14.70;100.00;102371.81;5055141;28;19925;-55
2023/04/09 01:26:56;;;;;;;;;;;;;;;14.56;100.00;102375.34;5056461;28;20395;-50
2023/04/09 01:29:25;;;;;;;;;;;;;;;14.57;100.00;102380.53;5053016;28;19995;-52
2023/04/09 01:31:51;;;;;;;;;;;;;;;14.74;100.00;102378.50;5057228;28;20003;-53
2023/04/09 01:34:17;;;;;;;;;;;;;;;14.76;100.00;102379.19;5073171;28;19948;-54
2023/04/09 01:36:44;;;;;;;;;;;;;;;14.75;100.00;102377.50;5073304;28;19923;-53
2023/04/09 01:39:10;;;;;;;;;;;;;;;14.66;100.00;102375.88;5071306;28;19984;-50
2023/04/09 01:41:36;;;;;;;;;;;;;;;14.63;100.00;102373.56;5073757;28;19928;-54
2023/04/09 01:44:02;;;;;;;;;;;;;;;14.67;100.00;102372.19;5071026;28;19917;-51
2023/04/09 01:46:28;;;;;;;;;;;;;;;14.72;100.00;102371.66;5072464;28;19924;-55
2023/04/09 01:48:55;;;;;;;;;;;;;;;14.88;100.00;102376.00;5055169;28;19928;-53
2023/04/09 01:51:20;;;;;;;;;;;;;;;14.93;100.00;102364.69;5054850;28;19972;-51
2023/04/09 01:53:47;;;;;;;;;;;;;;;14.88;100.00;102371.47;5074337;28;19917;-52
2023/04/09 01:56:12;;;;;;;;;;;;;;;14.77;100.00;102370.09;5074503;28;19917;-51
2023/04/09 01:58:38;;;;;;;;;;;;;;;14.53;100.00;102364.91;5059342;28;20034;-53
2023/04/09 02:01:12;;;;;;;;;;;;;;;14.58;100.00;102371.44;5058747;28;19917;-54
2023/04/09 02:03:50;;;;;;;;;;;;;;;14.60;100.00;102364.00;5075230;28;19912;-50
2023/04/09 02:06:29;;;;;;;;;;;;;;;14.60;100.00;102371.25;5054516;28;19988;-52
2023/04/09 02:08:57;;;;;;;;;;;;;;;14.18;100.00;102363.59;5056985;28;19917;-52
2023/04/09 02:11:25;;;;;;;;;;;;;;;14.14;100.00;102366.81;5051938;28;19917;-52
2023/04/09 02:13:53;;;;;;;;;;;;;;;14.12;100.00;102355.41;5074674;28;19921;-56
2023/04/09 02:16:19;;;;;;;;;;;;;;;14.16;100.00;102357.56;5076317;28;19917;-56
2023/04/09 02:18:45;;;;;;;;;;;;;;;14.44;100.00;102358.81;5073607;28;19989;-55
2023/04/09 02:21:12;;;;;;;;;;;;;;;14.37;100.00;102358.69;5078166;28;19916;-51
2023/04/09 02:23:38;;;;;;;;;;;;;;;14.31;100.00;102354.06;5077160;28;19927;-51
2023/04/09 02:26:03;;;;;;;;;;;;;;;14.30;100.00;102366.66;5075951;28;19920;-55
2023/04/09 02:28:29;;;;;;;;;;;;;;;14.37;100.00;102347.09;5066043;28;19980;-54
2023/04/09 02:30:54;;;;;;;;;;;;;;;14.27;100.00;102355.41;5048968;28;19925;-53
2023/04/09 02:33:20;;;;;;;;;;;;;;;14.16;100.00;102354.84;5057527;28;19983;-53
2023/04/09 02:35:45;;;;;;;;;;;;;;;14.19;100.00;102351.81;5066661;28;19917;-56
2023/04/09 02:38:12;;;;;;;;;;;;;;;14.27;100.00;102352.72;5057661;28;19913;-55
2023/04/09 02:40:41;;;;;;;;;;;;;;;14.38;100.00;102352.31;5076169;28;19927;-53
2023/04/09 02:43:07;;;;;;;;;;;;;;;14.36;100.00;102346.28;5076330;28;19958;-53
2023/04/09 02:45:33;;;;;;;;;;;;;;;14.25;100.00;102344.84;5077063;28;19917;-50
2023/04/09 02:47:58;;;;;;;;;;;;;;;14.38;100.00;102344.22;5073973;28;19992;-53
2023/04/09 02:50:23;;;;;;;;;;;;;;;14.49;100.00;102335.69;5097567;28;19979;-54
2023/04/09 02:52:51;;;;;;;;;;;;;;;14.30;100.00;102342.44;5093512;28;19944;-54
2023/04/09 02:55:17;;;;;;;;;;;;;;;14.05;100.00;102340.00;5076210;28;19916;-55
2023/04/09 02:57:43;;;;;;;;;;;;;;;14.10;100.00;102347.53;5078197;28;19920;-56
2023/04/09 03:00:09;;;;;;;;;;;;;;;14.29;100.00;102340.78;5095376;28;19924;-54
2023/04/09 03:02:34;;;;;;;;;;;;;;;14.32;100.00;102342.28;5078056;28;19927;-56
2023/04/09 03:05:00;;;;;;;;;;;;;;;14.36;100.00;102345.41;5094581;28;19932;-53
2023/04/09 03:07:25;;;;;;;;;;;;;;;14.22;100.00;102339.00;5092183;28;19920;-49
2023/04/09 03:09:51;;;;;;;;;;;;;;;14.29;100.00;102335.41;5077499;28;19925;-54
2023/04/09 03:12:16;;;;;;;;;;;;;;;14.41;100.00;102337.63;5075598;28;19999;-57
2023/04/09 03:14:42;;;;;;;;;;;;;;;14.33;100.00;102336.69;5075462;28;19963;-54
2023/04/09 03:17:08;;;;;;;;;;;;;;;14.41;100.00;102327.69;5093512;28;19921;-50
2023/04/09 03:19:33;;;;;;;;;;;;;;;14.45;100.00;102330.88;5078071;28;19960;-56
2023/04/09 03:21:59;;;;;;;;;;;;;;;14.48;100.00;102322.41;5097336;28;19916;-54
2023/04/09 03:24:27;;;;;;;;;;;;;;;14.44;100.00;102321.94;5077418;28;19923;-55
2023/04/09 03:26:57;;;;;;;;;;;;;;;14.47;100.00;102326.97;5088394;28;19927;-52
2023/04/09 03:29:24;;;;;;;;;;;;;;;14.30;100.00;102320.06;5074823;28;19917;-55
2023/04/09 03:31:50;;;;;;;;;;;;;;;14.23;100.00;102321.84;5077937;28;20003;-52
2023/04/09 03:34:16;;;;;;;;;;;;;;;14.20;100.00;102315.81;5092962;28;20386;-54
2023/04/09 03:36:49;;;;;;;;;;;;;;;14.27;100.00;102315.06;5075633;28;19917;-52
2023/04/09 03:39:21;;;;;;;;;;;;;;;14.30;100.00;102320.06;5076589;28;20057;-52
2023/04/09 03:41:46;;;;;;;;;;;;;;;14.20;100.00;102315.81;5094154;28;19920;-54
2023/04/09 03:44:14;;;;;;;;;;;;;;;14.29;100.00;102310.31;5071671;28;19917;-54
2023/04/09 03:46:59;;;;;;;;;;;;;;;14.32;100.00;102315.38;5094765;28;19926;-54
2023/04/09 03:49:25;;;;;;;;;;;;;;;14.23;100.00;102313.75;5077732;28;19916;-53
2023/04/09 03:51:54;;;;;;;;;;;;;;;14.26;100.00;102310.69;5074665;28;19925;-51
2023/04/09 03:54:19;;;;;;;;;;;;;;;14.20;100.00;102305.03;5093311;28;19955;-54
2023/04/09 03:56:45;;;;;;;;;;;;;;;14.27;100.00;102310.53;5077212;28;19917;-53
2023/04/09 03:59:12;;;;;;;;;;;;;;;14.28;100.00;102305.97;5076701;28;19928;-55
2023/04/09 04:01:41;;;;;;;;;;;;;;;14.16;100.00;102298.38;5077367;28;19950;-53
2023/04/09 04:04:07;;;;;;;;;;;;;;;14.06;100.00;102300.47;5060858;28;19927;-52
2023/04/09 04:06:42;;;;;;;;;;;;;;;14.20;100.00;102307.72;5086897;28;19928;-51
2023/04/09 04:09:21;;;;;;;;;;;;;;;14.28;100.00;102300.59;5077350;28;19917;-54
2023/04/09 04:11:52;;;;;;;;;;;;;;;14.22;100.00;102298.63;5076932;28;20014;-53
2023/04/09 04:14:20;;;;;;;;;;;;;;;14.15;100.00;102299.38;5076983;28;19927;-52
2023/04/09 04:16:50;;;;;;;;;;;;;;;13.95;100.00;102306.28;5074701;28;20298;-53
2023/04/09 04:19:19;;;;;;;;;;;;;;;13.96;100.00;102313.34;5075310;28;19925;-56
2023/04/09 04:21:48;;;;;;;;;;;;;;;14.03;100.00;102314.28;5076402;28;20007;-52
2023/04/09 04:24:13;;;;;;;;;;;;;;;14.04;100.00;102311.41;5091676;28;19928;-55
2023/04/09 04:26:39;;;;;;;;;;;;;;;14.22;100.00;102312.09;5077094;28;19921;-54
2023/04/09 04:29:06;;;;;;;;;;;;;;;14.20;100.00;102309.59;5076713;28;20390;-54
2023/04/09 04:31:47;;;;;;;;;;;;;;;14.11;100.00;102311.53;5076651;28;19923;-53
2023/04/09 04:34:16;;;;;;;;;;;;;;;13.96;100.00;102307.97;5076791;28;19923;-51
2023/04/09 04:36:45;;;;;;;;;;;;;;;13.91;100.00;102312.03;5091601;28;19916;-56
2023/04/09 04:39:11;;;;;;;;;;;;;;;14.08;100.00;102308.34;5093761;28;19921;-53
2023/04/09 04:41:48;;;;;;;;;;;;;;;14.01;100.00;102313.63;5080522;28;19927;-52
2023/04/09 04:44:19;;;;;;;;;;;;;;;13.89;100.00;102311.41;5093290;28;19947;-53
2023/04/09 04:46:45;;;;;;;;;;;;;;;13.82;100.00;102302.34;5093239;28;19920;-55
2023/04/09 04:49:11;;;;;;;;;;;;;;;13.64;100.00;102304.53;5093148;28;19921;-53
2023/04/09 04:51:43;;;;;;;;;;;;;;;13.87;100.00;102305.38;5092175;28;19924;-55
2023/04/09 04:54:12;;;;;;;;;;;;;;;13.76;100.00;102308.47;5093989;28;19931;-52
2023/04/09 04:56:42;;;;;;;;;;;;;;;13.83;100.00;102304.03;5091506;28;19927;-51
2023/04/09 04:59:29;;;;;;;;;;;;;;;13.76;100.00;102300.41;5090995;28;19938;-52
2023/04/09 05:01:58;;;;;;;;;;;;;;;13.76;100.00;102300.41;5091614;28;19919;-53
2023/04/09 05:04:25;;;;;;;;;;;;;;;13.76;100.00;102301.25;5093191;28;19921;-53
2023/04/09 05:06:52;;;;;;;;;;;;;;;13.82;100.00;102307.72;5093176;28;19955;-52
2023/04/09 05:09:21;;;;;;;;;;;;;;;13.98;100.00;102306.78;5092097;28;19916;-52
2023/04/09 05:11:57;;;;;;;;;;;;;;;14.06;100.00;102300.47;5093116;28;19916;-52
2023/04/09 05:14:24;;;;;;;;;;;;;;;14.03;100.00;102306.22;5092093;28;19924;-54
2023/04/09 05:16:49;;;;;;;;;;;;;;;13.84;100.00;102300.34;5092042;28;19923;-55
2023/04/09 05:19:19;;;;;;;;;;;;;;;13.60;100.00;102296.00;5091862;28;19950;-54
2023/04/09 05:21:45;;;;;;;;;;;;;;;13.58;100.00;102303.41;5092778;28;19938;-54
2023/04/09 05:24:11;;;;;;;;;;;;;;;13.67;100.00;102306.88;5093614;28;19944;-52
2023/04/09 05:26:38;;;;;;;;;;;;;;;13.88;100.00;102308.88;5091836;28;19959;-52
2023/04/09 05:29:04;;;;;;;;;;;;;;;13.78;100.00;102306.44;5095027;28;19924;-52
2023/04/09 05:31:30;;;;;;;;;;;;;;;13.70;100.00;102312.69;5096383;28;19951;-53
2023/04/09 05:34:04;;;;;;;;;;;;;;;13.90;100.00;102318.44;5095729;28;19953;-54
2023/04/09 05:36:37;;;;;;;;;;;;;;;13.81;100.00;102316.00;5095711;28;19916;-51
2023/04/09 05:39:02;;;;;;;;;;;;;;;13.70;100.00;102303.81;5096598;28;19927;-57
2023/04/09 05:41:29;;;;;;;;;;;;;;;13.83;100.00;102313.97;5094508;28;19988;-55
2023/04/09 05:44:14;;;;;;;;;;;;;;;13.82;100.00;102315.81;5096276;28;19917;-53
2023/04/09 05:46:39;;;;;;;;;;;;;;;13.78;100.00;102314.50;5096588;28;20024;-49
2023/04/09 05:49:06;;;;;;;;;;;;;;;14.07;100.00;102317.44;5096504;28;19916;-49
2023/04/09 05:51:34;;;;;;;;;;;;;;;13.94;100.00;102318.06;5092967;28;19924;-56
2023/04/09 05:54:02;;;;;;;;;;;;;;;13.62;100.00;102324.38;5092791;28;19924;-51
2023/04/09 05:56:33;;;;;;;;;;;;;;;13.33;100.00;102325.03;5096681;28;19963;-53
2023/04/09 05:58:59;;;;;;;;;;;;;;;13.32;100.00;102324.19;5096236;28;19916;-54
2023/04/09 06:01:25;;;;;;;;;;;;;;;13.46;100.00;102328.00;5096405;28;19916;-55
2023/04/09 06:03:51;;;;;;;;;;;;;;;13.60;100.00;102329.06;5096412;28;19916;-54
2023/04/09 06:06:16;;;;;;;;;;;;;;;13.56;100.00;102327.75;5096959;28;20004;-55
2023/04/09 06:08:43;;;;;;;;;;;;;;;13.46;100.00;102324.50;5094993;28;19925;-53
2023/04/09 06:11:10;;;;;;;;;;;;;;;13.29;100.00;102323.72;5096286;28;19939;-54
2023/04/09 06:13:35;;;;;;;;;;;;;;;13.30;100.00;102322.72;5092593;28;19988;-53
2023/04/09 06:16:04;;;;;;;;;;;;;;;13.07;100.00;102322.66;5095897;28;19920;-52
2023/04/09 06:18:30;;;;;;;;;;;;;;;13.28;100.00;102325.56;5094034;28;19916;-54
2023/04/09 06:21:05;;;;;;;;;;;;;;;13.20;100.00;102322.94;5096846;28;19927;-55
2023/04/09 06:23:31;;;;;;;;;;;;;;;13.17;100.00;102328.66;5096596;28;19917;-51
2023/04/09 06:25:57;;;;;;;;;;;;;;;13.08;100.00;102325.19;5095719;28;19927;-54
2023/04/09 06:28:22;;;;;;;;;;;;;;;13.31;100.00;102330.59;5096214;28;19916;-53
2023/04/09 06:30:48;;;;;;;;;;;;;;;13.23;100.00;102337.84;5096539;28;19920;-54
2023/04/09 06:33:13;;;;;;;;;;;;;;;13.15;100.00;102339.56;5096588;28;19954;-54
2023/04/09 06:35:39;;;;;;;;;;;;;;;13.28;100.00;102339.00;5096712;28;19924;-54
2023/04/09 06:38:05;;;;;;;;;;;;;;;13.14;100.00;102343.28;5096093;28;19916;-55
2023/04/09 06:40:31;;;;;;;;;;;;;;;13.20;100.00;102336.38;5095429;28;19939;-54
2023/04/09 06:42:56;;;;;;;;;;;;;;;13.23;100.00;102336.00;5096168;28;19984;-52
2023/04/09 06:45:28;;;;;;;;;;;;;;;13.33;100.00;102335.78;5095100;28;19923;-54
2023/04/09 06:47:54;;;;;;;;;;;;;;;13.33;100.00;102347.34;5095701;28;19950;-55
2023/04/09 06:50:20;;;;;;;;;;;;;;;13.31;100.00;102349.38;5095261;28;20017;-50
2023/04/09 06:52:45;;;;;;;;;;;;;;;13.19;100.00;102345.44;5095853;28;19923;-53
2023/04/09 06:55:11;;;;;;;;;;;;;;;13.30;100.00;102339.66;5095800;28;19923;-52
2023/04/09 06:57:37;;;;;;;;;;;;;;;13.47;100.00;102353.03;5095514;28;19959;-55
2023/04/09 07:00:03;;;;;;;;;;;;;;;13.41;100.00;102353.72;5095961;28;19968;-53
2023/04/09 07:02:28;;;;;;;;;;;;;;;13.43;100.00;102352.53;5095695;28;19980;-51
2023/04/09 07:04:54;;;;;;;;;;;;;;;13.49;100.00;102353.69;5095631;28;19954;-53
2023/04/09 07:07:21;;;;;;;;;;;;;;;13.55;100.00;102352.97;5094622;28;19946;-55
2023/04/09 07:09:46;;;;;;;;;;;;;;;13.54;100.00;102358.53;5095914;28;19916;-52
2023/04/09 07:12:12;;;;;;;;;;;;;;;13.57;100.00;102353.63;5095657;28;19946;-52
2023/04/09 07:14:38;;;;;;;;;;;;;;;13.71;100.00;102362.78;5094430;28;19917;-54
2023/04/09 07:17:03;;;;;;;;;;;;;;;13.84;100.00;102362.19;5095386;28;19968;-54
2023/04/09 07:19:29;;;;;;;;;;;;;;;13.59;100.00;102356.16;5095310;28;19947;-52
2023/04/09 07:21:55;;;;;;;;;;;;;;;13.82;100.00;102358.81;5095342;28;19931;-50
2023/04/09 07:24:20;;;;;;;;;;;;;;;14.03;100.00;102358.16;5095222;28;19927;-49
2023/04/09 07:26:45;;;;;;;;;;;;;;;13.98;100.00;102349.81;5095023;28;19921;-51
2023/04/09 07:29:11;;;;;;;;;;;;;;;13.84;100.00;102367.56;5095175;28;19920;-53
2023/04/09 07:31:36;;;;;;;;;;;;;;;14.14;100.00;102364.97;5095129;28;19947;-52
2023/04/09 07:34:02;;;;;;;;;;;;;;;14.10;100.00;102360.97;5095301;28;19923;-51
2023/04/09 07:36:27;;;;;;;;;;;;;;;14.17;100.00;102364.59;5095112;28;19920;-51
2023/04/09 07:38:53;;;;;;;;;;;;;;;14.27;100.00;102358.97;5094878;28;19916;-56
2023/04/09 07:41:18;;;;;;;;;;;;;;;14.19;100.00;102365.25;5094912;28;20426;-52
2023/04/09 07:43:43;;;;;;;;;;;;;;;14.34;100.00;102359.06;5095140;28;19987;-54
2023/04/09 07:46:09;;;;;;;;;;;;;;;14.44;100.00;102366.88;5095268;28;19921;-53
2023/04/09 07:48:34;;;;;;;;;;;;;;;14.62;100.00;102356.56;5093213;28;19984;-52
2023/04/09 07:51:00;;;;;;;;;;;;;;;14.67;100.00;102358.72;5095348;28;19920;-56
2023/04/09 07:53:25;;;;;;;;;;;;;;;14.55;100.00;102352.13;5094221;28;19916;-50
2023/04/09 07:55:51;;;;;;;;;;;;;;;14.68;100.00;102352.31;5093473;28;19917;-50
2023/04/09 07:58:16;;;;;;;;;;;;;;;14.82;100.00;102353.34;5093841;28;19915;-49
2023/04/09 08:00:42;;;;;;;;;;;;;;;14.81;100.00;102358.94;5094891;28;19997;-53
2023/04/09 08:03:07;;;;;;;;;;;;;;;14.98;100.00;102351.50;5093949;28;19924;-53
2023/04/09 08:05:34;;;;;;;;;;;;;;;15.15;100.00;102358.34;5094126;28;20279;-48
2023/04/09 08:07:59;;;;;;;;;;;;;;;15.11;100.00;102359.75;5093824;28;19920;-50
2023/04/09 08:10:24;;;;;;;;;;;;;;;15.54;100.00;102364.38;5093712;28;19976;-55
2023/04/09 08:12:50;;;;;;;;;;;;;;;15.58;100.00;102362.94;5094375;28;19916;-52
2023/04/09 08:15:16;;;;;;;;;;;;;;;15.86;100.00;102366.75;5093841;28;19923;-53
2023/04/09 08:17:41;;;;;;;;;;;;;;;16.13;100.00;102357.03;5093597;28;19983;-53
2023/04/09 08:20:07;;;;;;;;;;;;;;;16.27;100.00;102365.25;5094269;28;19924;-55
2023/04/09 08:22:33;;;;;;;;;;;;;;;16.51;100.00;102368.53;5093874;28;19951;-52
2023/04/09 08:24:58;;;;;;;;;;;;;;;16.69;100.00;102366.16;5093804;28;19916;-54
2023/04/09 08:27:24;;;;;;;;;;;;;;;16.88;100.00;102375.38;5093724;28;19931;-53
2023/04/09 08:29:49;;;;;;;;;;;;;;;17.08;100.00;102369.28;5093661;28;19916;-55
2023/04/09 08:32:15;;;;;;;;;;;;;;;17.11;98.28;102368.88;5093409;28;19935;-53
2023/04/09 08:34:40;;;;;;;;;;;;;;;17.06;98.32;102377.56;5093389;28;19938;-53
2023/04/09 08:37:06;;;;;;;;;;;;;;;17.00;98.86;102375.69;5093764;28;19923;-53
2023/04/09 08:39:32;;;;;;;;;;;;;;;16.86;99.97;102382.84;5093184;28;19920;-52
2023/04/09 08:42:00;;;;;;;;;;;;;;;16.86;99.39;102369.34;5075501;28;19920;-50
2023/04/09 08:44:26;;;;;;;;;;;;;;;17.41;98.98;102378.53;5097459;28;19917;-54
2023/04/09 08:46:51;;;;;;;;;;;;;;;17.75;95.97;102368.59;5096064;28;19927;-53
2023/04/09 08:49:16;;;;;;;;;;;;;;;17.83;94.56;102373.84;5093867;28;19917;-57
2023/04/09 08:51:45;;;;;;;;;;;;;;;17.42;96.00;102372.09;5093712;28;19921;-54
2023/04/09 08:54:13;;;;;;;;;;;;;;;17.57;96.08;102363.78;5098327;28;19921;-56
2023/04/09 08:56:38;;;;;;;;;;;;;;;17.78;95.62;102360.09;5096099;28;19924;-55
2023/04/09 08:59:04;;;;;;;;;;;;;;;17.80;95.99;102360.72;5087130;28;19992;-53
2023/04/09 09:01:30;;;;;;;;;;;;;;;18.12;94.10;102363.66;5093578;28;19920;-53
2023/04/09 09:03:56;;;;;;;;;;;;;;;17.92;94.33;102359.03;5093818;28;19942;-56
2023/04/09 09:06:43;;;;;;;;;;;;;;;18.12;93.12;102357.44;5092432;28;19995;-54
2023/04/09 09:09:08;;;;;;;;;;;;;;;18.61;91.17;102357.97;5090981;28;19916;-54
2023/04/09 09:11:34;;;;;;;;;;;;;;;18.98;88.15;102360.13;5087363;28;19923;-55
2023/04/09 09:14:01;;;;;;;;;;;;;;;19.43;84.73;102360.13;5093464;28;19960;-56
2023/04/09 09:16:26;;;;;;;;;;;;;;;19.61;82.25;102362.13;5093167;28;19979;-52
2023/04/09 09:18:52;;;;;;;;;;;;;;;19.54;82.38;102358.59;5091654;28;19971;-57
2023/04/09 09:21:18;;;;;;;;;;;;;;;20.11;80.87;102357.81;5096589;28;19917;-56
2023/04/09 09:23:44;;;;;;;;;;;;;;;20.92;77.44;102360.50;5090176;28;19917;-55
2023/04/09 09:26:10;;;;;;;;;;;;;;;21.46;74.53;102361.69;5086688;28;19924;-56
2023/04/09 09:28:36;;;;;;;;;;;;;;;21.49;73.34;102367.47;5093576;28;19905;-56
2023/04/09 09:31:06;;;;;;;;;;;;;;;22.02;71.54;102359.53;5095616;28;19934;-57
2023/04/09 09:33:32;;;;;;;;;;;;;;;21.97;69.36;102351.25;5093530;28;19916;-54
2023/04/09 09:35:57;;;;;;;;;;;;;;;23.25;66.72;102359.72;5092403;28;19928;-57
2023/04/09 09:38:23;;;;;;;;;;;;;;;22.56;66.59;102353.16;5097908;28;19916;-52
2023/04/09 09:40:49;;;;;;;;;;;;;;;23.68;64.37;102345.72;5098825;28;19916;-57
2023/04/09 09:43:14;;;;;;;;;;;;;;;23.47;63.59;102359.03;5102539;28;19916;-54
2023/04/09 09:45:40;;;;;;;;;;;;;;;23.30;64.69;102348.09;5094218;28;19927;-56
2023/04/09 09:48:06;;;;;;;;;;;;;;;24.04;62.87;102354.53;5097016;28;19931;-53
2023/04/09 09:50:33;;;;;;;;;;;;;;;24.65;61.51;102356.44;5097960;28;19927;-53
2023/04/09 09:53:05;;;;;;;;;;;;;;;25.30;59.03;102356.63;5102386;28;19969;-53
2023/04/09 09:55:31;;;;;;;;;;;;;;;24.98;57.84;102351.09;5101785;28;19920;-54
2023/04/09 09:57:59;;;;;;;;;;;;;;;24.89;56.41;102354.31;5093091;28;19916;-54
2023/04/09 10:00:26;;;;;;;;;;;;;;;24.92;56.67;102353.78;5094637;28;20183;-52
2023/04/09 10:02:55;;;;;;;;;;;;;;;25.11;54.99;102349.88;5095433;28;19984;-54
2023/04/09 10:05:23;;;;;;;;;;;;;;;25.04;54.75;102347.38;5096713;28;19961;-55
2023/04/09 10:07:49;;;;;;;;;;;;;;;25.80;53.96;102344.78;5096188;28;19924;-54
2023/04/09 10:10:15;;;;;;;;;;;;;;;26.72;51.58;102338.16;5093003;28;19916;-55
2023/04/09 10:12:42;;;;;;;;;;;;;;;26.29;51.00;102346.47;5098024;28;19938;-57
2023/04/09 10:15:08;;;;;;;;;;;;;;;26.80;50.33;102345.06;5098093;28;19938;-54
2023/04/09 10:17:33;;;;;;;;;;;;;;;27.44;48.04;102337.50;5099716;28;19916;-54
2023/04/09 10:20:10;;;;;;;;;;;;;;;27.05;47.84;102336.06;5096591;28;19916;-57
2023/04/09 10:22:36;;;;;;;;;;;;;;;27.43;46.90;102333.09;5092900;28;19923;-55
2023/04/09 10:25:02;;;;;;;;;;;;;;;28.16;45.08;102329.22;5097192;28;19951;-53
2023/04/09 10:27:28;;;;;;;;;;;;;;;28.89;44.30;102327.00;5096354;28;19927;-55
2023/04/09 10:29:53;;;;;;;;;;;;;;;28.93;44.21;102321.75;5078055;28;20360;-57
2023/04/09 10:32:20;;;;;;;;;;;;;;;28.99;42.64;102317.03;5096680;28;19919;-58
2023/04/09 10:34:45;;;;;;;;;;;;;;;27.89;44.04;102307.53;5092982;28;19916;-57
2023/04/09 10:37:15;;;;;;;;;;;;;;;27.62;44.74;102301.25;5092953;28;19925;-54
2023/04/09 10:39:45;;;;;;;;;;;;;;;26.69;45.39;102301.09;5095588;28;19917;-56
2023/04/09 10:42:12;;;;;;;;;;;;;;;25.71;46.62;102314.31;5083428;28;19929;-51
2023/04/09 10:44:40;;;;;;;;;;;;;;;24.60;48.31;102310.72;5075894;28;19916;-54
2023/04/09 10:47:05;;;;;;;;;;;;;;;24.51;49.85;102297.75;5075626;28;19992;-58
2023/04/09 10:49:40;;;;;;;;;;;;;;;24.20;50.57;102296.25;5075657;28;19932;-57
2023/04/09 10:52:09;;;;;;;;;;;;;;;23.39;51.51;102299.38;5075093;28;19923;-57
2023/04/09 10:54:34;;;;;;;;;;;;;;;23.87;51.20;102294.38;5075603;28;19924;-55
2023/04/09 10:57:06;;;;;;;;;;;;;;;23.56;52.14;102288.47;5075184;28;19921;-54
2023/04/09 10:59:35;;;;;;;;;;;;;;;24.39;51.01;102285.03;5073698;28;19917;-56
2023/04/09 11:02:00;;;;;;;;;;;;;;;23.83;50.91;102279.59;5073591;28;19943;-54
2023/04/09 11:04:35;;;;;;;;;;;;;;;23.48;50.91;102279.63;5073670;28;19917;-57
2023/04/09 11:07:02;;;;;;;;;;;;;;;23.02;52.05;102271.41;5072401;28;21553;-55
2023/04/09 11:09:27;;;;;;;;;;;;;;;22.78;52.66;102268.81;5075361;28;19919;-53
2023/04/09 11:11:53;;;;;;;;;;;;;;;22.12;53.42;102268.25;5075265;28;19917;-55
2023/04/09 11:14:19;;;;;;;;;;;;;;;23.36;51.85;102267.13;5075260;28;19963;-55
2023/04/09 11:16:48;;;;;;;;;;;;;;;23.55;49.92;102264.97;5074929;28;19917;-57
2023/04/09 11:19:13;;;;;;;;;;;;;;;23.35;49.91;102266.28;5075147;28;19924;-57
2023/04/09 11:21:44;;;;;;;;;;;;;;;23.44;49.34;102259.34;5075034;28;20007;-57
2023/04/09 11:24:10;;;;;;;;;;;;;;;23.49;49.33;102262.16;5075226;28;19924;-55
2023/04/09 11:26:36;;;;;;;;;;;;;;;22.98;50.12;102259.34;5074422;28;19973;-57
2023/04/09 11:29:07;;;;;;;;;;;;;;;22.85;50.49;102256.94;5075226;28;19920;-58
2023/04/09 11:31:32;;;;;;;;;;;;;;;23.26;49.82;102265.84;5074900;28;19947;-57
2023/04/09 11:33:58;;;;;;;;;;;;;;;23.45;48.92;102254.72;5074544;28;19920;-56
2023/04/09 11:36:23;;;;;;;;;;;;;;;23.48;48.40;102259.66;5075885;28;19955;-58
2023/04/09 11:38:50;;;;;;;;;;;;;;;23.97;47.92;102256.31;5075124;28;19916;-56
2023/04/09 11:41:16;;;;;;;;;;;;;;;24.23;47.25;102256.66;5080774;28;19920;-58
2023/04/09 11:43:41;;;;;;;;;;;;;;;24.32;46.50;102263.34;5094498;28;19943;-56
2023/04/09 11:46:06;;;;;;;;;;;;;;;24.43;46.72;102264.28;5094661;28;19948;-53
2023/04/09 11:48:33;;;;;;;;;;;;;;;24.41;46.57;102260.19;5094017;28;20280;-58
2023/04/09 11:50:59;;;;;;;;;;;;;;;22.97;47.18;102259.63;5094350;28;20079;-56
2023/04/09 11:53:28;;;;;;;;;;;;;;;22.53;47.77;102251.94;5094598;28;19982;-58
2023/04/09 11:55:54;;;;;;;;;;;;;;;22.70;48.37;102243.81;5094524;28;19974;-54
2023/04/09 11:58:26;;;;;;;;;;;;;;;22.76;47.96;102253.78;5094626;28;19917;-54
2023/04/09 12:00:53;;;;;;;;;;;;;;;22.97;48.05;102249.50;5093342;28;19942;-54
2023/04/09 12:03:26;;;;;;;;;;;;;;;23.18;47.38;102249.88;5094124;28;19979;-55
2023/04/09 12:05:51;;;;;;;;;;;;;;;24.23;44.62;102253.13;5093864;28;19977;-56
2023/04/09 12:08:21;;;;;;;;;;;;;;;25.18;43.97;102257.44;5093958;28;19920;-56
2023/04/09 12:10:46;;;;;;;;;;;;;;;24.97;43.71;102243.56;5093199;28;19919;-57
2023/04/09 12:13:12;;;;;;;;;;;;;;;24.41;43.92;102241.03;5092708;28;19947;-56
2023/04/09 12:15:40;;;;;;;;;;;;;;;23.89;43.84;102243.09;5094079;28;19924;-53
2023/04/09 12:18:09;;;;;;;;;;;;;;;26.13;41.70;102244.94;5094054;28;19924;-56
2023/04/09 12:20:39;;;;;;;;;;;;;;;27.06;38.95;102244.38;5094046;28;19939;-57
2023/04/09 12:23:05;;;;;;;;;;;;;;;28.82;37.34;102254.91;5093962;28;19947;-54
2023/04/09 12:25:34;;;;;;;;;;;;;;;28.90;36.17;102259.00;5094409;28;19919;-57
2023/04/09 12:28:00;;;;;;;;;;;;;;;28.16;36.84;102257.72;5093908;28;20000;-56
2023/04/09 12:30:26;;;;;;;;;;;;;;;27.81;37.44;102255.91;5094127;28;19924;-57